Thursday, July 31, 2014
03:29 UTC
  |  Log In   |  Register Free
Airport Search:

Enid Woodring Regional Airport
(KWDG)

Enid Woodring Regional Airport Diagram
No Airport Diagram Available

FAA data valid effective July 24, 2014 until September 18, 2014 (unless otherwise noted).

 
 
 
 
 
 
 
 
 
 
 
 
 
 

Current Aviation Weather for Enid Woodring Regional Airport (KWDG)

The most recent METAR observation for KWDG was updated at: 1850 UTC
METAR Summary (Translated METAR)
KWDG
281850Z 00000KT 10SM SCT150 BKN200 29/15 A3024
KEND
(6.6 nm SW from KWDG)
281755Z 06004KT 10SM FEW100 BKN150 BKN200 27/17 A3026 RMK SLP237 50003
TAF Summary (Translated TAF)
KEND
(6.6 nm SW from KWDG)
3023/3124 04009KT 4800 -RA BKN008 QNH3000INS BECMG 3105/3106 04006KT 8000 BR OVC006 QNH3009INS BECMG 3114/3115 03006KT 9999 NSW BKN015 QNH3012INS BECMG 3115/3116 03006KT 9999 SCT015 QNH3008INS BECMG 3117/3118 05010G15KT 9999 FEW150 QNH3004INS TX20/3122Z TN16/3111Z AMD 302325 LAST NO AMDS AFT 3023 NEXT 3110
  Airport Weather Conditions for KWDG

 Current Weather at WDG
68° F
Light Rain
Northeast winds at 16.1 mph
WDG NOAA Radar

Pressure: 30.06 in
Humidity: 100%
Wind: from the Northeast at 16.1 gusting to 19.6 MPH (14 gusting to 17 KT)
Dew Point: 68.0°F
Visibility: 5.00 mi


Airport Weather Forecast for KWDG

Translated METAR and TAF for KWDG
Translated METAR for KWDG (0322 UTC 31 July 2014)
found at http://aviationweather.gov/adds/metars/
 
METAR text: KWDG 310315Z AUTO 03017G21KT 3SM RA SCT006 BKN009 OVC015 20/19 A3007 RMK AO2 P0002 LTG DSNT W
Conditions at: KWDG (ENID/WOODRING , OK, US) observed 0315 UTC 31 July 2014
Temperature: 20.0°C (68°F)
Dewpoint: 19.0°C (66°F) [RH = 94%]
Pressure (altimeter): 30.07 inches Hg (1018.4 mb)
Winds: from the NNE (30 degrees) at 20 MPH (17 knots; 8.8 m/s)
gusting to 24 MPH (21 knots; 10.9 m/s)
Visibility: 3 miles (5 km)
Ceiling: 900 feet AGL
Clouds: scattered clouds at 600 feet AGL
broken clouds at 900 feet AGL
overcast cloud deck at 1500 feet AGL
Weather: RA  (rain)
Translated TAF for KWDG

There is no translated TAF available for this airport

Find All Airport Services Find A Hotel Find A Rental Car Find A Golf Course Find A Restaurant $100 Hamburger



FBO's on the Field
FBO Company Facility Photos Services Transportation Aviation Fuel Prices: Prices include tax
Catering Weather Repair Courtesy Rental Type 100LL JetA JetA+ MOGAS 8087
 
Enid Woodring Regional Airport

This FBO has not yet been rated
FS:Phillips66
Last Updated: Jul-28
Login to update fuel prices
SS:
Contact Enid Woodring Regional AirportMore FBO Information
 
Add another FBO Facility Photos Catering Weather Repair Courtesy Rental Type 100LL JetA JetA+ MOGAS 8087
Services Transportation Aviation Fuel Prices: Prices include tax


GlobalAir.com Airport Resource Center model-print
model-print
model-print
model-print